createdAt,value
2019-04-03T00:02:02.631Z,23.73
2019-04-03T00:05:06.785Z,23.73
2019-04-03T00:08:10.411Z,23.71
2019-04-03T00:11:15.908Z,23.72
2019-04-03T00:14:19.418Z,23.70
2019-04-03T00:17:22.914Z,23.70
2019-04-03T00:20:26.418Z,23.71
2019-04-03T00:23:29.968Z,23.71
2019-04-03T00:26:33.445Z,23.68
2019-04-03T00:29:36.937Z,23.68
2019-04-03T00:32:40.416Z,23.67
2019-04-03T00:35:43.937Z,23.65
2019-04-03T00:38:47.421Z,23.67
2019-04-03T00:41:50.864Z,23.66
2019-04-03T00:44:54.957Z,23.66
2019-04-03T00:47:58.436Z,23.66
2019-04-03T00:51:02.077Z,23.64
2019-04-03T00:54:06.572Z,23.63
2019-04-03T00:57:12.114Z,23.59
2019-04-03T01:00:16.078Z,23.59
2019-04-03T01:03:19.746Z,23.60
2019-04-03T01:06:23.280Z,23.58
2019-04-03T01:09:29.225Z,23.58
2019-04-03T01:12:32.085Z,23.57
2019-04-03T01:15:35.600Z,23.57
2019-04-03T01:18:39.085Z,23.58
2019-04-03T01:21:42.595Z,23.57
2019-04-03T01:24:46.309Z,23.55
2019-04-03T01:27:49.784Z,23.54
2019-04-03T01:30:53.201Z,23.54
2019-04-03T01:33:56.714Z,23.54
2019-04-03T01:37:00.268Z,23.55
2019-04-03T01:40:04.479Z,23.54
2019-04-03T01:43:07.904Z,23.52
2019-04-03T01:46:11.457Z,23.53
2019-04-03T01:49:14.835Z,23.52
2019-04-03T01:52:18.312Z,23.52
2019-04-03T01:55:22.085Z,23.51
2019-04-03T01:58:26.644Z,23.52
2019-04-03T02:01:30.121Z,23.51
2019-04-03T02:04:33.655Z,23.49
2019-04-03T02:07:37.307Z,23.48
2019-04-03T02:10:40.876Z,23.48
2019-04-03T02:13:45.405Z,23.51
2019-04-03T02:16:48.869Z,23.49
2019-04-03T02:19:52.321Z,23.49
2019-04-03T02:22:55.788Z,23.48
2019-04-03T02:26:00.592Z,23.48
2019-04-03T02:29:05.103Z,23.47
2019-04-03T02:32:09.741Z,23.45
2019-04-03T02:35:13.655Z,23.47
2019-04-03T02:38:21.426Z,23.45
2019-04-03T02:41:22.615Z,23.44
2019-04-03T02:44:26.124Z,23.44
2019-04-03T02:47:33.617Z,23.45
2019-04-03T02:50:36.002Z,23.44
2019-04-03T02:53:39.513Z,23.45
2019-04-03T02:56:45.245Z,23.44
2019-04-03T02:59:48.141Z,23.43
2019-04-03T03:02:51.729Z,23.42
2019-04-03T03:06:00.638Z,23.43
2019-04-03T03:09:02.541Z,23.43
2019-04-03T03:12:06.051Z,23.41
2019-04-03T03:15:12.673Z,23.42
2019-04-03T03:18:16.391Z,23.40
2019-04-03T03:21:20.416Z,23.40
2019-04-03T03:24:23.821Z,23.41
2019-04-03T03:27:27.414Z,23.41
2019-04-03T03:30:41.736Z,23.40
2019-04-03T03:33:40.214Z,23.41
2019-04-03T03:36:41.937Z,23.40
2019-04-03T03:39:45.932Z,23.38
2019-04-03T03:42:49.422Z,23.38
2019-04-03T03:45:54.026Z,23.38
2019-04-03T03:48:57.567Z,23.38
2019-04-03T03:52:04.092Z,23.37
2019-04-03T03:55:07.167Z,23.36
2019-04-03T03:58:12.477Z,23.36
2019-04-03T04:01:17.040Z,23.38
2019-04-03T04:04:22.531Z,23.37
2019-04-03T04:07:26.163Z,23.36
2019-04-03T04:10:29.738Z,23.36
2019-04-03T04:13:33.435Z,23.35
2019-04-03T04:16:38.381Z,23.34
2019-04-03T04:19:42.906Z,23.33
2019-04-03T04:22:50.749Z,23.34
2019-04-03T04:25:52.985Z,23.33
2019-04-03T04:28:56.519Z,23.33
2019-04-03T04:31:59.980Z,23.34
2019-04-03T04:35:03.643Z,23.33
2019-04-03T04:38:07.210Z,23.33
2019-04-03T04:41:10.695Z,23.32
2019-04-03T04:44:15.146Z,23.30
2019-04-03T04:47:19.118Z,23.30
2019-04-03T04:50:25.366Z,23.31
2019-04-03T04:53:29.838Z,23.31
2019-04-03T04:56:33.341Z,23.30
2019-04-03T04:59:37.094Z,23.30
2019-04-03T05:02:41.634Z,23.30
2019-04-03T05:05:45.091Z,23.29
2019-04-03T05:08:48.559Z,23.29
2019-04-03T05:11:53.096Z,23.28
2019-04-03T05:14:56.572Z,23.28
2019-04-03T05:18:00.167Z,23.29
2019-04-03T05:21:03.777Z,23.29
2019-04-03T05:24:12.700Z,23.28
2019-04-03T05:27:12.636Z,23.28
2019-04-03T05:30:28.960Z,23.28
2019-04-03T05:33:32.519Z,23.27
2019-04-03T05:36:37.342Z,23.28
2019-04-03T05:39:41.171Z,23.28
2019-04-03T05:42:45.699Z,23.27
2019-04-03T05:45:50.225Z,23.27
2019-04-03T05:48:53.719Z,23.27
2019-04-03T05:51:57.244Z,23.26
2019-04-03T05:55:00.712Z,23.26
2019-04-03T05:58:04.216Z,23.25
2019-04-03T06:01:10.581Z,23.27
2019-04-03T06:04:14.381Z,23.25
2019-04-03T06:07:18.662Z,23.25
2019-04-03T06:10:22.639Z,23.25
2019-04-03T06:13:27.436Z,23.25
2019-04-03T06:16:31.083Z,23.26
2019-04-03T06:19:36.423Z,23.23
2019-04-03T06:22:39.937Z,23.25
2019-04-03T06:25:43.747Z,23.25
2019-04-03T06:28:47.830Z,23.24
2019-04-03T06:31:51.526Z,23.25
2019-04-03T06:34:55.183Z,23.23
2019-04-03T06:37:59.049Z,23.22
2019-04-03T06:41:02.889Z,23.25
2019-04-03T06:44:06.371Z,23.22
2019-04-03T06:47:09.895Z,23.25
2019-04-03T06:50:15.611Z,23.23
2019-04-03T06:53:18.711Z,23.23
2019-04-03T06:56:22.466Z,23.23
2019-04-03T06:59:26.055Z,23.24
2019-04-03T07:02:31.989Z,23.25
2019-04-03T07:05:35.774Z,23.26
2019-04-03T07:08:40.699Z,23.26
2019-04-03T07:11:44.638Z,23.28
2019-04-03T07:14:49.188Z,23.31
2019-04-03T07:17:52.659Z,23.31
2019-04-03T07:20:56.464Z,23.34
2019-04-03T07:24:00.688Z,23.34
2019-04-03T07:27:06.305Z,23.38
2019-04-03T07:30:10.425Z,23.37
2019-04-03T07:33:13.867Z,23.42
2019-04-03T07:36:17.463Z,23.43
2019-04-03T07:39:21.046Z,23.43
2019-04-03T07:42:25.180Z,23.45
2019-04-03T07:45:28.769Z,23.47
2019-04-03T07:48:33.517Z,23.48
2019-04-03T07:51:37.121Z,23.48
2019-04-03T07:54:40.615Z,23.48
2019-04-03T07:57:44.312Z,23.49
2019-04-03T08:00:48.259Z,23.52
2019-04-03T08:03:53.342Z,23.53
2019-04-03T08:06:56.851Z,23.54
2019-04-03T08:10:00.424Z,23.55
2019-04-03T08:13:05.005Z,23.55
2019-04-03T08:16:09.308Z,23.58
2019-04-03T08:19:13.228Z,23.60
2019-04-03T08:22:16.806Z,23.62
2019-04-03T08:25:20.324Z,23.63
2019-04-03T08:28:30.184Z,23.67
2019-04-03T08:31:32.438Z,23.68
2019-04-03T08:34:35.948Z,23.67
2019-04-03T08:37:41.964Z,23.68
2019-04-03T08:40:44.878Z,23.71
2019-04-03T08:43:49.393Z,23.72
2019-04-03T08:46:53.090Z,23.71
2019-04-03T08:49:57.499Z,23.73
2019-04-03T08:53:01.657Z,23.75
2019-04-03T08:56:05.171Z,23.75
2019-04-03T08:59:08.690Z,23.76
2019-04-03T09:02:13.212Z,23.77
2019-04-03T09:05:19.440Z,23.78
2019-04-03T09:08:22.245Z,23.80
2019-04-03T09:11:26.813Z,23.79
2019-04-03T09:14:30.387Z,23.79
2019-04-03T09:17:34.700Z,23.80
2019-04-03T09:20:38.315Z,23.80
2019-04-03T09:23:41.797Z,23.81
2019-04-03T09:26:45.356Z,23.81
2019-04-03T09:29:48.782Z,23.78
2019-04-03T09:32:53.727Z,23.79
2019-04-03T09:35:59.395Z,23.79
2019-04-03T09:39:03.111Z,23.78
2019-04-03T09:42:06.684Z,23.79
2019-04-03T09:45:10.390Z,23.78
2019-04-03T09:48:19.837Z,23.80
2019-04-03T09:51:23.623Z,23.79
2019-04-03T09:54:28.318Z,23.80
2019-04-03T09:57:32.497Z,23.83
2019-04-03T10:00:36.353Z,23.83
2019-04-03T10:03:39.822Z,23.83
2019-04-03T10:06:43.268Z,23.85
2019-04-03T10:09:47.186Z,23.83
2019-04-03T10:12:53.585Z,23.86
2019-04-03T10:15:56.049Z,23.84
2019-04-03T10:18:59.570Z,23.85
2019-04-03T10:22:03.077Z,23.89
2019-04-03T10:25:06.664Z,23.90
2019-04-03T10:28:11.973Z,23.90
2019-04-03T10:31:16.103Z,23.91
2019-04-03T10:34:19.513Z,23.93
2019-04-03T10:37:23.426Z,23.94
2019-04-03T10:40:26.949Z,23.94
2019-04-03T10:43:30.461Z,23.94
2019-04-03T10:46:33.921Z,23.96
2019-04-03T10:49:37.451Z,24.04
2019-04-03T10:52:43.948Z,24.04
2019-04-03T10:55:46.273Z,24.05
2019-04-03T10:58:50.872Z,24.06
2019-04-03T11:01:54.519Z,24.09
2019-04-03T11:04:59.788Z,24.09
2019-04-03T11:08:03.678Z,24.09
2019-04-03T11:11:09.423Z,24.09
2019-04-03T11:14:13.104Z,24.12
2019-04-03T11:17:18.137Z,24.11
2019-04-03T11:20:22.071Z,24.13
2019-04-03T11:23:36.566Z,24.15
2019-04-03T11:26:31.105Z,24.15
2019-04-03T11:29:34.651Z,24.18
2019-04-03T11:32:39.170Z,24.23
2019-04-03T11:35:44.627Z,24.22
2019-04-03T11:38:48.210Z,24.23
2019-04-03T11:41:54.459Z,24.27
2019-04-03T11:44:57.338Z,24.29
2019-04-03T11:48:01.033Z,24.29
2019-04-03T11:51:04.690Z,24.30
2019-04-03T11:54:09.295Z,24.32
2019-04-03T11:57:15.536Z,24.30
2019-04-03T12:00:21.972Z,24.33
2019-04-03T12:03:26.816Z,24.31
2019-04-03T12:06:30.371Z,24.32
2019-04-03T12:09:33.897Z,24.30
2019-04-03T12:12:37.575Z,24.33
2019-04-03T12:15:41.225Z,24.30
2019-04-03T12:18:44.980Z,24.35
2019-04-03T12:21:50.853Z,24.38
2019-04-03T12:24:55.043Z,24.39
2019-04-03T12:27:58.851Z,24.40
2019-04-03T12:31:03.546Z,24.42
2019-04-03T12:34:07.536Z,24.44
2019-04-03T12:37:11.550Z,24.46
2019-04-03T12:40:15.236Z,24.46
2019-04-03T12:43:19.843Z,24.50
2019-04-03T12:46:40.818Z,24.49
2019-04-03T12:49:43.582Z,24.51
2019-04-03T12:52:47.635Z,24.50
2019-04-03T12:55:51.302Z,24.54
2019-04-03T12:58:54.896Z,24.55
2019-04-03T13:01:58.466Z,24.56
2019-04-03T13:05:05.090Z,24.54
2019-04-03T13:08:07.756Z,24.58
2019-04-03T13:11:11.343Z,24.56
2019-04-03T13:14:24.271Z,24.57
2019-04-03T13:17:20.166Z,24.60
2019-04-03T13:20:23.738Z,24.58
2019-04-03T13:23:27.701Z,24.61
2019-04-03T13:26:31.338Z,24.64
2019-04-03T13:29:34.935Z,24.64
2019-04-03T13:32:38.527Z,24.68
2019-04-03T13:35:42.017Z,24.67
2019-04-03T13:38:45.982Z,24.68
2019-04-03T13:41:49.655Z,24.68
2019-04-03T13:44:53.106Z,24.70
2019-04-03T13:47:56.728Z,24.70
2019-04-03T13:51:00.343Z,24.71
2019-04-03T13:54:06.608Z,24.72
2019-04-03T13:57:09.158Z,24.71
2019-04-03T14:00:19.746Z,24.73
2019-04-03T14:03:19.152Z,24.73
2019-04-03T14:06:23.359Z,24.76
2019-04-03T14:09:27.243Z,24.76
2019-04-03T14:12:30.914Z,24.79
2019-04-03T14:15:34.481Z,24.79
2019-04-03T14:18:40.260Z,24.81
2019-04-03T14:21:43.440Z,24.83
2019-04-03T14:24:51.164Z,24.81
2019-04-03T14:27:52.486Z,24.86
2019-04-03T14:30:56.073Z,24.86
2019-04-03T14:34:00.712Z,24.87
2019-04-03T14:37:04.299Z,24.86
2019-04-03T14:40:10.986Z,24.91
2019-04-03T14:43:13.156Z,24.88
2019-04-03T14:46:21.201Z,24.92
2019-04-03T14:49:25.415Z,24.93
2019-04-03T14:52:29.059Z,24.92
2019-04-03T14:55:45.221Z,24.94
2019-04-03T14:58:38.208Z,24.95
2019-04-03T15:01:41.750Z,24.97
2019-04-03T15:04:46.622Z,24.99
2019-04-03T15:07:51.299Z,25.02
2019-04-03T15:10:55.104Z,25.00
2019-04-03T15:13:58.627Z,25.02
2019-04-03T15:17:04.740Z,25.05
2019-04-03T15:20:08.202Z,25.09
2019-04-03T15:23:12.904Z,25.11
2019-04-03T15:26:16.903Z,25.10
2019-04-03T15:29:20.762Z,25.14
2019-04-03T15:32:24.454Z,25.13
2019-04-03T15:35:28.020Z,25.16
2019-04-03T15:38:31.577Z,25.16
2019-04-03T15:41:35.040Z,25.16
2019-04-03T15:44:38.557Z,25.16
2019-04-03T15:47:45.807Z,25.18
2019-04-03T15:50:47.646Z,25.17
2019-04-03T15:53:51.537Z,25.19
2019-04-03T15:56:55.485Z,25.16
2019-04-03T16:00:01.832Z,25.19
2019-04-03T16:03:04.953Z,25.20
2019-04-03T16:06:08.609Z,25.17
2019-04-03T16:09:12.389Z,25.18
2019-04-03T16:12:15.974Z,25.19
2019-04-03T16:15:21.694Z,25.16
2019-04-03T16:18:24.944Z,25.15
2019-04-03T16:21:30.196Z,25.14
2019-04-03T16:24:34.721Z,25.12
2019-04-03T16:27:38.195Z,25.11
2019-04-03T16:30:44.983Z,25.14
2019-04-03T16:33:48.941Z,25.13
2019-04-03T16:36:52.390Z,25.12
2019-04-03T16:39:55.893Z,25.10
2019-04-03T16:42:59.379Z,25.07
2019-04-03T16:46:02.906Z,25.05
2019-04-03T16:49:07.716Z,25.02
2019-04-03T16:52:11.621Z,25.00
2019-04-03T16:55:15.939Z,24.96
2019-04-03T16:58:26.417Z,24.95
2019-04-03T17:01:29.513Z,24.97
2019-04-03T17:04:35.628Z,24.96
2019-04-03T17:07:38.644Z,24.96
2019-04-03T17:10:42.591Z,24.95
2019-04-03T17:13:46.386Z,24.90
2019-04-03T17:16:50.490Z,24.88
2019-04-03T17:19:54.127Z,24.84
2019-04-03T17:22:58.626Z,24.84
2019-04-03T17:26:02.127Z,24.81
2019-04-03T17:29:06.353Z,24.81
2019-04-03T17:32:10.376Z,24.78
2019-04-03T17:35:15.058Z,24.79
2019-04-03T17:38:19.135Z,24.78
2019-04-03T17:41:23.961Z,24.74
2019-04-03T17:44:27.444Z,24.73
2019-04-03T17:47:30.942Z,24.73
2019-04-03T17:50:34.469Z,24.70
2019-04-03T17:53:37.963Z,24.69
2019-04-03T17:56:43.084Z,24.67
2019-04-03T17:59:48.972Z,24.67
2019-04-03T18:02:52.125Z,24.69
2019-04-03T18:05:57.005Z,24.68
2019-04-03T18:09:03.385Z,24.66
2019-04-03T18:12:06.317Z,24.67
2019-04-03T18:15:09.781Z,24.70
2019-04-03T18:18:13.240Z,24.71
2019-04-03T18:21:17.113Z,24.73
2019-04-03T18:24:23.171Z,24.72
2019-04-03T18:27:27.319Z,24.71
2019-04-03T18:30:30.808Z,24.70
2019-04-03T18:33:34.311Z,24.70
2019-04-03T18:36:37.859Z,24.72
2019-04-03T18:39:41.297Z,24.71
2019-04-03T18:42:44.838Z,24.74
2019-04-03T18:45:48.413Z,24.76
2019-04-03T18:48:57.081Z,24.73
2019-04-03T18:51:58.787Z,24.74
2019-04-03T18:55:02.384Z,24.74
2019-04-03T18:58:06.026Z,24.73
2019-04-03T19:01:10.588Z,24.72
2019-04-03T19:04:14.044Z,24.72
2019-04-03T19:07:20.140Z,24.73
2019-04-03T19:10:23.903Z,24.72
2019-04-03T19:13:28.441Z,24.73
2019-04-03T19:16:43.575Z,24.72
2019-04-03T19:19:37.277Z,24.75
2019-04-03T19:22:40.807Z,24.76
2019-04-03T19:25:44.434Z,24.75
2019-04-03T19:28:47.987Z,24.75
2019-04-03T19:31:51.519Z,24.76
2019-04-03T19:34:55.015Z,24.75
2019-04-03T19:37:58.475Z,24.72
2019-04-03T19:41:03.000Z,24.76
2019-04-03T19:44:06.527Z,24.72
2019-04-03T19:47:10.022Z,24.73
2019-04-03T19:50:13.573Z,24.72
2019-04-03T19:53:17.075Z,24.74
2019-04-03T19:56:20.520Z,24.73
2019-04-03T19:59:24.034Z,24.74
2019-04-03T20:02:27.546Z,24.69
2019-04-03T20:05:31.132Z,24.69
2019-04-03T20:08:34.736Z,24.67
2019-04-03T20:11:39.268Z,24.63
2019-04-03T20:14:57.223Z,24.63
2019-04-03T20:17:49.104Z,24.61
2019-04-03T20:20:52.639Z,24.60
2019-04-03T20:23:56.176Z,24.61
2019-04-03T20:26:59.615Z,24.59
2019-04-03T20:30:03.343Z,24.54
2019-04-03T20:33:07.845Z,24.55
2019-04-03T20:36:11.348Z,24.53
2019-04-03T20:39:16.899Z,24.52
2019-04-03T20:42:20.405Z,24.51
2019-04-03T20:45:23.908Z,24.49
2019-04-03T20:48:28.779Z,24.48
2019-04-03T20:51:33.479Z,24.48
2019-04-03T20:54:38.098Z,24.46
2019-04-03T20:57:54.530Z,24.45
2019-04-03T21:00:49.203Z,24.44
2019-04-03T21:03:52.289Z,24.43
2019-04-03T21:06:55.776Z,24.43
2019-04-03T21:10:00.997Z,24.42
2019-04-03T21:13:04.635Z,24.39
2019-04-03T21:16:09.141Z,24.40
2019-04-03T21:19:12.656Z,24.37
2019-04-03T21:22:16.146Z,24.38
2019-04-03T21:25:19.663Z,24.36
2019-04-03T21:28:23.155Z,24.36
2019-04-03T21:31:28.696Z,24.31
2019-04-03T21:34:33.297Z,24.33
2019-04-03T21:37:39.772Z,24.32
2019-04-03T21:40:42.072Z,24.34
2019-04-03T21:43:45.569Z,24.29
2019-04-03T21:46:49.075Z,24.28
2019-04-03T21:49:52.571Z,24.29
2019-04-03T21:52:56.075Z,24.26
2019-04-03T21:56:01.879Z,24.26
2019-04-03T21:59:04.921Z,24.26
2019-04-03T22:02:08.447Z,24.26
2019-04-03T22:05:12.234Z,24.25
2019-04-03T22:08:15.849Z,24.23
2019-04-03T22:11:19.341Z,24.24
2019-04-03T22:14:22.898Z,24.23
2019-04-03T22:17:26.348Z,24.23
2019-04-03T22:20:30.127Z,24.22
2019-04-03T22:23:35.577Z,24.20
2019-04-03T22:26:40.774Z,24.20
2019-04-03T22:29:44.441Z,24.19
2019-04-03T22:32:47.873Z,24.19
2019-04-03T22:35:51.348Z,24.18
2019-04-03T22:38:54.843Z,24.17
2019-04-03T22:41:58.272Z,24.16
2019-04-03T22:45:01.756Z,24.16
2019-04-03T22:48:06.250Z,24.16
2019-04-03T22:51:09.768Z,24.15
2019-04-03T22:54:15.298Z,24.13
2019-04-03T22:57:19.820Z,24.14
2019-04-03T23:00:23.908Z,24.15
2019-04-03T23:03:29.082Z,24.11
2019-04-03T23:06:32.590Z,24.13
2019-04-03T23:09:37.105Z,24.13
2019-04-03T23:12:40.739Z,24.11
2019-04-03T23:15:44.333Z,24.09
2019-04-03T23:18:47.825Z,24.09
2019-04-03T23:21:52.895Z,24.08
2019-04-03T23:24:59.297Z,24.09
2019-04-03T23:28:02.999Z,24.06
2019-04-03T23:31:07.146Z,24.06
2019-04-03T23:34:11.796Z,24.05
2019-04-03T23:37:15.388Z,24.05
2019-04-03T23:40:19.917Z,24.04
2019-04-03T23:43:24.498Z,24.02
2019-04-03T23:46:28.965Z,24.03
2019-04-03T23:49:32.456Z,24.04
2019-04-03T23:52:35.979Z,24.02
2019-04-03T23:55:39.474Z,24.02
2019-04-03T23:58:42.952Z,24.01
